sensor_id;sensor_type;location;lat;lon;timestamp;P1;durP1;ratioP1;P2;durP2;ratioP2
13267;SDS011;6702;47.068;15.458;2023-04-01T00:00:10;3.30;;;3.10;;
13267;SDS011;6702;47.068;15.458;2023-04-01T00:03:14;3.30;;;2.83;;
13267;SDS011;6702;47.068;15.458;2023-04-01T00:06:20;3.27;;;2.93;;
13267;SDS011;6702;47.068;15.458;2023-04-01T00:09:23;3.33;;;3.13;;
13267;SDS011;6702;47.068;15.458;2023-04-01T00:12:30;7.23;;;3.90;;
13267;SDS011;6702;47.068;15.458;2023-04-01T00:15:33;4.00;;;3.70;;
13267;SDS011;6702;47.068;15.458;2023-04-01T00:18:37;3.83;;;3.53;;
13267;SDS011;6702;47.068;15.458;2023-04-01T00:21:42;5.40;;;4.90;;
13267;SDS011;6702;47.068;15.458;2023-04-01T00:24:45;3.10;;;2.90;;
13267;SDS011;6702;47.068;15.458;2023-04-01T00:27:48;3.57;;;3.33;;
13267;SDS011;6702;47.068;15.458;2023-04-01T00:30:51;3.00;;;2.70;;
13267;SDS011;6702;47.068;15.458;2023-04-01T00:33:54;3.63;;;3.23;;
13267;SDS011;6702;47.068;15.458;2023-04-01T00:37:00;7.67;;;3.03;;
13267;SDS011;6702;47.068;15.458;2023-04-01T00:40:03;2.80;;;2.60;;
13267;SDS011;6702;47.068;15.458;2023-04-01T00:43:11;3.83;;;3.53;;
13267;SDS011;6702;47.068;15.458;2023-04-01T00:46:16;3.37;;;2.80;;
13267;SDS011;6702;47.068;15.458;2023-04-01T00:49:20;4.33;;;3.47;;
13267;SDS011;6702;47.068;15.458;2023-04-01T00:52:27;3.57;;;3.27;;
13267;SDS011;6702;47.068;15.458;2023-04-01T00:55:32;3.40;;;3.20;;
13267;SDS011;6702;47.068;15.458;2023-04-01T00:58:38;3.80;;;3.50;;
13267;SDS011;6702;47.068;15.458;2023-04-01T01:01:44;3.40;;;3.07;;
13267;SDS011;6702;47.068;15.458;2023-04-01T01:04:47;3.53;;;3.23;;
13267;SDS011;6702;47.068;15.458;2023-04-01T01:07:53;3.70;;;3.40;;
13267;SDS011;6702;47.068;15.458;2023-04-01T01:11:05;5.63;;;3.70;;
13267;SDS011;6702;47.068;15.458;2023-04-01T01:14:17;4.27;;;3.10;;
13267;SDS011;6702;47.068;15.458;2023-04-01T01:17:31;4.23;;;3.83;;
13267;SDS011;6702;47.068;15.458;2023-04-01T01:20:53;4.20;;;3.30;;
13267;SDS011;6702;47.068;15.458;2023-04-01T01:24:36;3.77;;;3.30;;
13267;SDS011;6702;47.068;15.458;2023-04-01T01:28:02;3.80;;;3.50;;
13267;SDS011;6702;47.068;15.458;2023-04-01T01:31:19;3.37;;;2.80;;
13267;SDS011;6702;47.068;15.458;2023-04-01T01:34:26;3.53;;;3.23;;
13267;SDS011;6702;47.068;15.458;2023-04-01T01:37:38;3.80;;;3.37;;
13267;SDS011;6702;47.068;15.458;2023-04-01T01:40:45;3.33;;;3.10;;
13267;SDS011;6702;47.068;15.458;2023-04-01T01:43:53;3.30;;;3.00;;
13267;SDS011;6702;47.068;15.458;2023-04-01T01:46:59;4.30;;;3.57;;
13267;SDS011;6702;47.068;15.458;2023-04-01T01:50:03;3.20;;;3.00;;
13267;SDS011;6702;47.068;15.458;2023-04-01T01:53:10;4.07;;;3.70;;
13267;SDS011;6702;47.068;15.458;2023-04-01T01:56:15;4.73;;;2.90;;
13267;SDS011;6702;47.068;15.458;2023-04-01T01:59:23;3.43;;;3.23;;
13267;SDS011;6702;47.068;15.458;2023-04-01T02:02:28;3.30;;;3.10;;
13267;SDS011;6702;47.068;15.458;2023-04-01T02:05:33;2.63;;;2.43;;
13267;SDS011;6702;47.068;15.458;2023-04-01T02:08:39;2.83;;;2.63;;
13267;SDS011;6702;47.068;15.458;2023-04-01T02:11:47;3.80;;;3.50;;
13267;SDS011;6702;47.068;15.458;2023-04-01T02:14:54;3.67;;;2.97;;
13267;SDS011;6702;47.068;15.458;2023-04-01T02:18:00;4.10;;;2.70;;
13267;SDS011;6702;47.068;15.458;2023-04-01T02:21:04;3.97;;;2.57;;
13267;SDS011;6702;47.068;15.458;2023-04-01T02:24:12;2.80;;;2.60;;
13267;SDS011;6702;47.068;15.458;2023-04-01T02:27:17;4.00;;;3.10;;
13267;SDS011;6702;47.068;15.458;2023-04-01T02:30:21;3.40;;;3.10;;
13267;SDS011;6702;47.068;15.458;2023-04-01T02:33:25;5.00;;;3.10;;
13267;SDS011;6702;47.068;15.458;2023-04-01T02:36:29;4.80;;;3.67;;
13267;SDS011;6702;47.068;15.458;2023-04-01T02:39:34;3.10;;;2.80;;
13267;SDS011;6702;47.068;15.458;2023-04-01T02:42:37;3.67;;;3.30;;
13267;SDS011;6702;47.068;15.458;2023-04-01T02:45:40;4.50;;;3.10;;
13267;SDS011;6702;47.068;15.458;2023-04-01T02:48:44;3.70;;;2.90;;
13267;SDS011;6702;47.068;15.458;2023-04-01T02:51:47;7.40;;;3.00;;
13267;SDS011;6702;47.068;15.458;2023-04-01T02:54:51;4.87;;;3.33;;
13267;SDS011;6702;47.068;15.458;2023-04-01T02:57:55;3.20;;;2.90;;
13267;SDS011;6702;47.068;15.458;2023-04-01T03:00:58;4.00;;;3.70;;
13267;SDS011;6702;47.068;15.458;2023-04-01T03:04:01;3.63;;;3.33;;
13267;SDS011;6702;47.068;15.458;2023-04-01T03:07:05;3.30;;;2.80;;
13267;SDS011;6702;47.068;15.458;2023-04-01T03:10:09;3.90;;;2.57;;
13267;SDS011;6702;47.068;15.458;2023-04-01T03:13:13;3.40;;;3.00;;
13267;SDS011;6702;47.068;15.458;2023-04-01T03:16:16;3.00;;;2.70;;
13267;SDS011;6702;47.068;15.458;2023-04-01T03:19:19;3.63;;;3.27;;
13267;SDS011;6702;47.068;15.458;2023-04-01T03:22:23;4.03;;;2.60;;
13267;SDS011;6702;47.068;15.458;2023-04-01T03:25:27;3.33;;;3.13;;
13267;SDS011;6702;47.068;15.458;2023-04-01T03:28:32;4.40;;;4.10;;
13267;SDS011;6702;47.068;15.458;2023-04-01T03:31:35;3.87;;;3.57;;
13267;SDS011;6702;47.068;15.458;2023-04-01T03:34:38;4.90;;;4.30;;
13267;SDS011;6702;47.068;15.458;2023-04-01T03:37:42;3.93;;;3.13;;
13267;SDS011;6702;47.068;15.458;2023-04-01T03:40:46;4.80;;;2.80;;
13267;SDS011;6702;47.068;15.458;2023-04-01T03:43:49;3.00;;;2.70;;
13267;SDS011;6702;47.068;15.458;2023-04-01T03:46:52;2.97;;;2.77;;
13267;SDS011;6702;47.068;15.458;2023-04-01T03:49:56;3.30;;;3.00;;
13267;SDS011;6702;47.068;15.458;2023-04-01T03:52:59;4.70;;;3.53;;
13267;SDS011;6702;47.068;15.458;2023-04-01T03:56:04;4.60;;;2.93;;
13267;SDS011;6702;47.068;15.458;2023-04-01T03:59:08;3.30;;;2.90;;
13267;SDS011;6702;47.068;15.458;2023-04-01T04:02:12;4.07;;;2.60;;
13267;SDS011;6702;47.068;15.458;2023-04-01T04:05:15;4.37;;;3.00;;
13267;SDS011;6702;47.068;15.458;2023-04-01T04:08:18;3.03;;;2.83;;
13267;SDS011;6702;47.068;15.458;2023-04-01T04:11:24;3.90;;;3.60;;
13267;SDS011;6702;47.068;15.458;2023-04-01T04:14:28;4.73;;;4.33;;
13267;SDS011;6702;47.068;15.458;2023-04-01T04:17:31;5.23;;;4.73;;
13267;SDS011;6702;47.068;15.458;2023-04-01T04:20:34;5.97;;;5.13;;
13267;SDS011;6702;47.068;15.458;2023-04-01T04:23:37;5.47;;;4.83;;
13267;SDS011;6702;47.068;15.458;2023-04-01T04:26:42;6.50;;;5.90;;
13267;SDS011;6702;47.068;15.458;2023-04-01T04:29:45;7.23;;;6.50;;
13267;SDS011;6702;47.068;15.458;2023-04-01T04:32:48;6.20;;;5.67;;
13267;SDS011;6702;47.068;15.458;2023-04-01T04:35:54;7.53;;;6.90;;
13267;SDS011;6702;47.068;15.458;2023-04-01T04:38:58;7.07;;;6.27;;
13267;SDS011;6702;47.068;15.458;2023-04-01T04:42:04;7.00;;;6.40;;
13267;SDS011;6702;47.068;15.458;2023-04-01T04:45:08;8.37;;;6.43;;
13267;SDS011;6702;47.068;15.458;2023-04-01T04:48:13;6.60;;;6.10;;
13267;SDS011;6702;47.068;15.458;2023-04-01T04:51:20;6.07;;;5.37;;
13267;SDS011;6702;47.068;15.458;2023-04-01T04:54:24;10.20;;;4.67;;
13267;SDS011;6702;47.068;15.458;2023-04-01T04:57:28;5.63;;;5.20;;
13267;SDS011;6702;47.068;15.458;2023-04-01T05:00:32;6.17;;;5.63;;
13267;SDS011;6702;47.068;15.458;2023-04-01T05:03:35;7.80;;;5.40;;
13267;SDS011;6702;47.068;15.458;2023-04-01T05:06:38;4.83;;;4.43;;
13267;SDS011;6702;47.068;15.458;2023-04-01T05:09:42;4.40;;;3.60;;
13267;SDS011;6702;47.068;15.458;2023-04-01T05:12:48;8.33;;;3.80;;
13267;SDS011;6702;47.068;15.458;2023-04-01T05:15:51;3.30;;;3.00;;
13267;SDS011;6702;47.068;15.458;2023-04-01T05:18:54;3.40;;;3.10;;
13267;SDS011;6702;47.068;15.458;2023-04-01T05:21:57;5.40;;;3.40;;
13267;SDS011;6702;47.068;15.458;2023-04-01T05:25:01;3.33;;;3.03;;
13267;SDS011;6702;47.068;15.458;2023-04-01T05:28:05;3.97;;;3.67;;
13267;SDS011;6702;47.068;15.458;2023-04-01T05:31:09;3.70;;;3.40;;
13267;SDS011;6702;47.068;15.458;2023-04-01T05:34:12;3.43;;;3.13;;
13267;SDS011;6702;47.068;15.458;2023-04-01T05:37:16;3.33;;;3.07;;
13267;SDS011;6702;47.068;15.458;2023-04-01T05:40:19;5.40;;;3.40;;
13267;SDS011;6702;47.068;15.458;2023-04-01T05:43:24;3.90;;;3.60;;
13267;SDS011;6702;47.068;15.458;2023-04-01T05:46:27;9.60;;;3.33;;
13267;SDS011;6702;47.068;15.458;2023-04-01T05:49:31;4.70;;;3.53;;
13267;SDS011;6702;47.068;15.458;2023-04-01T05:52:35;3.93;;;3.60;;
13267;SDS011;6702;47.068;15.458;2023-04-01T05:55:38;6.97;;;4.10;;
13267;SDS011;6702;47.068;15.458;2023-04-01T05:58:43;5.90;;;3.43;;
13267;SDS011;6702;47.068;15.458;2023-04-01T06:01:52;3.60;;;3.30;;
13267;SDS011;6702;47.068;15.458;2023-04-01T06:05:01;3.40;;;3.10;;
13267;SDS011;6702;47.068;15.458;2023-04-01T06:08:14;5.60;;;4.20;;
13267;SDS011;6702;47.068;15.458;2023-04-01T06:11:23;4.50;;;4.10;;
13267;SDS011;6702;47.068;15.458;2023-04-01T06:14:37;3.97;;;3.50;;
13267;SDS011;6702;47.068;15.458;2023-04-01T06:17:52;4.27;;;3.87;;
13267;SDS011;6702;47.068;15.458;2023-04-01T06:21:27;4.03;;;3.70;;
13267;SDS011;6702;47.068;15.458;2023-04-01T06:24:48;4.50;;;3.87;;
13267;SDS011;6702;47.068;15.458;2023-04-01T06:31:58;3.90;;;3.60;;
13267;SDS011;6702;47.068;15.458;2023-04-01T06:35:16;4.00;;;3.70;;
13267;SDS011;6702;47.068;15.458;2023-04-01T06:38:31;3.57;;;2.80;;
13267;SDS011;6702;47.068;15.458;2023-04-01T06:41:55;3.83;;;2.67;;
13267;SDS011;6702;47.068;15.458;2023-04-01T06:45:17;2.77;;;2.40;;
13267;SDS011;6702;47.068;15.458;2023-04-01T06:48:37;3.17;;;2.87;;
13267;SDS011;6702;47.068;15.458;2023-04-01T06:51:50;2.30;;;2.10;;
13267;SDS011;6702;47.068;15.458;2023-04-01T06:55:00;3.17;;;2.00;;
13267;SDS011;6702;47.068;15.458;2023-04-01T06:58:11;5.07;;;2.87;;
13267;SDS011;6702;47.068;15.458;2023-04-01T07:01:22;2.07;;;1.87;;
13267;SDS011;6702;47.068;15.458;2023-04-01T07:04:32;2.10;;;1.90;;
13267;SDS011;6702;47.068;15.458;2023-04-01T07:07:38;4.63;;;2.70;;
13267;SDS011;6702;47.068;15.458;2023-04-01T07:10:46;3.90;;;3.17;;
13267;SDS011;6702;47.068;15.458;2023-04-01T07:13:53;3.60;;;2.77;;
13267;SDS011;6702;47.068;15.458;2023-04-01T07:16:58;3.03;;;2.60;;
13267;SDS011;6702;47.068;15.458;2023-04-01T07:20:12;2.80;;;2.40;;
13267;SDS011;6702;47.068;15.458;2023-04-01T07:23:21;4.07;;;3.23;;
13267;SDS011;6702;47.068;15.458;2023-04-01T07:26:27;3.63;;;3.33;;
13267;SDS011;6702;47.068;15.458;2023-04-01T07:29:30;3.50;;;2.67;;
13267;SDS011;6702;47.068;15.458;2023-04-01T07:32:35;2.33;;;2.13;;
13267;SDS011;6702;47.068;15.458;2023-04-01T07:35:46;2.37;;;2.23;;
13267;SDS011;6702;47.068;15.458;2023-04-01T07:38:59;2.60;;;2.13;;
13267;SDS011;6702;47.068;15.458;2023-04-01T07:42:15;4.73;;;3.00;;
13267;SDS011;6702;47.068;15.458;2023-04-01T07:45:22;4.10;;;2.40;;
13267;SDS011;6702;47.068;15.458;2023-04-01T07:48:30;4.90;;;2.60;;
13267;SDS011;6702;47.068;15.458;2023-04-01T07:51:43;3.50;;;2.47;;
13267;SDS011;6702;47.068;15.458;2023-04-01T07:54:53;2.30;;;1.83;;
13267;SDS011;6702;47.068;15.458;2023-04-01T07:58:08;2.67;;;2.20;;
13267;SDS011;6702;47.068;15.458;2023-04-01T08:01:23;2.43;;;2.23;;
13267;SDS011;6702;47.068;15.458;2023-04-01T08:04:41;4.27;;;2.80;;
13267;SDS011;6702;47.068;15.458;2023-04-01T08:07:58;4.13;;;3.80;;
13267;SDS011;6702;47.068;15.458;2023-04-01T08:11:12;5.37;;;4.87;;
13267;SDS011;6702;47.068;15.458;2023-04-01T08:14:26;4.40;;;3.90;;
13267;SDS011;6702;47.068;15.458;2023-04-01T08:17:38;4.00;;;3.05;;
13267;SDS011;6702;47.068;15.458;2023-04-01T08:20:53;4.53;;;4.13;;
13267;SDS011;6702;47.068;15.458;2023-04-01T08:24:04;5.38;;;3.55;;
13267;SDS011;6702;47.068;15.458;2023-04-01T08:27:15;3.80;;;2.83;;
13267;SDS011;6702;47.068;15.458;2023-04-01T08:30:23;3.88;;;3.33;;
13267;SDS011;6702;47.068;15.458;2023-04-01T08:33:27;3.42;;;3.13;;
13267;SDS011;6702;47.068;15.458;2023-04-01T08:36:32;3.88;;;3.05;;
13267;SDS011;6702;47.068;15.458;2023-04-01T08:39:40;2.92;;;2.72;;
13267;SDS011;6702;47.068;15.458;2023-04-01T08:42:51;2.63;;;2.42;;
13267;SDS011;6702;47.068;15.458;2023-04-01T08:46:13;2.55;;;2.35;;
13267;SDS011;6702;47.068;15.458;2023-04-01T08:49:56;2.60;;;2.40;;
13267;SDS011;6702;47.068;15.458;2023-04-01T08:53:20;3.03;;;2.73;;
13267;SDS011;6702;47.068;15.458;2023-04-01T08:56:39;3.93;;;3.53;;
13267;SDS011;6702;47.068;15.458;2023-04-01T08:59:48;2.70;;;2.50;;
13267;SDS011;6702;47.068;15.458;2023-04-01T09:03:12;4.67;;;3.40;;
13267;SDS011;6702;47.068;15.458;2023-04-01T09:06:24;3.80;;;2.80;;
13267;SDS011;6702;47.068;15.458;2023-04-01T09:16:32;2.80;;;2.50;;
13267;SDS011;6702;47.068;15.458;2023-04-01T09:20:01;2.73;;;2.50;;
13267;SDS011;6702;47.068;15.458;2023-04-01T09:23:33;4.13;;;2.20;;
13267;SDS011;6702;47.068;15.458;2023-04-01T09:26:53;4.63;;;2.23;;
13267;SDS011;6702;47.068;15.458;2023-04-01T09:34:04;3.97;;;3.67;;
13267;SDS011;6702;47.068;15.458;2023-04-01T09:37:34;2.57;;;2.30;;
13267;SDS011;6702;47.068;15.458;2023-04-01T09:40:44;3.40;;;2.43;;
13267;SDS011;6702;47.068;15.458;2023-04-01T09:47:25;2.13;;;1.90;;
13267;SDS011;6702;47.068;15.458;2023-04-01T09:50:47;1.90;;;1.80;;
13267;SDS011;6702;47.068;15.458;2023-04-01T09:54:00;2.10;;;1.90;;
13267;SDS011;6702;47.068;15.458;2023-04-01T10:00:55;2.30;;;2.07;;
13267;SDS011;6702;47.068;15.458;2023-04-01T10:04:32;5.07;;;4.60;;
13267;SDS011;6702;47.068;15.458;2023-04-01T10:08:00;1.80;;;1.70;;
13267;SDS011;6702;47.068;15.458;2023-04-01T10:15:21;1.80;;;1.70;;
13267;SDS011;6702;47.068;15.458;2023-04-01T10:18:53;1.90;;;1.37;;
13267;SDS011;6702;47.068;15.458;2023-04-01T10:22:15;2.47;;;1.40;;
13267;SDS011;6702;47.068;15.458;2023-04-01T10:29:34;0.60;;;0.40;;
13267;SDS011;6702;47.068;15.458;2023-04-01T10:40:02;0.60;;;0.40;;
13267;SDS011;6702;47.068;15.458;2023-04-01T10:54:29;1.53;;;0.50;;
13267;SDS011;6702;47.068;15.458;2023-04-01T10:58:10;1.03;;;0.60;;
13267;SDS011;6702;47.068;15.458;2023-04-01T11:09:33;0.63;;;0.30;;
13267;SDS011;6702;47.068;15.458;2023-04-01T11:13:10;0.77;;;0.40;;
13267;SDS011;6702;47.068;15.458;2023-04-01T11:16:40;0.60;;;0.53;;
13267;SDS011;6702;47.068;15.458;2023-04-01T11:20:06;0.60;;;0.30;;
13267;SDS011;6702;47.068;15.458;2023-04-01T11:23:29;0.60;;;0.53;;
13267;SDS011;6702;47.068;15.458;2023-04-01T11:27:09;0.50;;;0.40;;
13267;SDS011;6702;47.068;15.458;2023-04-01T11:30:26;0.60;;;0.40;;
13267;SDS011;6702;47.068;15.458;2023-04-01T11:33:37;0.63;;;0.40;;
13267;SDS011;6702;47.068;15.458;2023-04-01T11:36:47;0.60;;;0.30;;
13267;SDS011;6702;47.068;15.458;2023-04-01T11:40:04;0.50;;;0.30;;
13267;SDS011;6702;47.068;15.458;2023-04-01T11:43:18;0.53;;;0.30;;
13267;SDS011;6702;47.068;15.458;2023-04-01T11:46:37;0.50;;;0.30;;
13267;SDS011;6702;47.068;15.458;2023-04-01T11:49:53;0.70;;;0.50;;
13267;SDS011;6702;47.068;15.458;2023-04-01T11:53:12;0.50;;;0.30;;
13267;SDS011;6702;47.068;15.458;2023-04-01T11:56:27;0.93;;;0.90;;
13267;SDS011;6702;47.068;15.458;2023-04-01T11:59:54;0.50;;;0.30;;
13267;SDS011;6702;47.068;15.458;2023-04-01T12:03:14;0.70;;;0.40;;
13267;SDS011;6702;47.068;15.458;2023-04-01T12:06:35;1.80;;;0.40;;
13267;SDS011;6702;47.068;15.458;2023-04-01T12:09:46;0.60;;;0.37;;
13267;SDS011;6702;47.068;15.458;2023-04-01T12:12:58;0.87;;;0.33;;
13267;SDS011;6702;47.068;15.458;2023-04-01T12:16:13;0.80;;;0.50;;
13267;SDS011;6702;47.068;15.458;2023-04-01T12:19:29;0.70;;;0.47;;
13267;SDS011;6702;47.068;15.458;2023-04-01T12:22:42;0.50;;;0.40;;
13267;SDS011;6702;47.068;15.458;2023-04-01T12:25:59;0.50;;;0.30;;
13267;SDS011;6702;47.068;15.458;2023-04-01T12:29:23;0.90;;;0.40;;
13267;SDS011;6702;47.068;15.458;2023-04-01T12:32:47;1.00;;;0.43;;
13267;SDS011;6702;47.068;15.458;2023-04-01T12:36:11;1.40;;;0.83;;
13267;SDS011;6702;47.068;15.458;2023-04-01T12:39:24;0.80;;;0.40;;
13267;SDS011;6702;47.068;15.458;2023-04-01T12:42:46;0.50;;;0.27;;
13267;SDS011;6702;47.068;15.458;2023-04-01T12:46:05;1.10;;;0.70;;
13267;SDS011;6702;47.068;15.458;2023-04-01T12:49:27;0.60;;;0.40;;
13267;SDS011;6702;47.068;15.458;2023-04-01T12:52:46;1.37;;;0.30;;
13267;SDS011;6702;47.068;15.458;2023-04-01T12:56:05;0.63;;;0.37;;
13267;SDS011;6702;47.068;15.458;2023-04-01T12:59:23;1.60;;;0.77;;
13267;SDS011;6702;47.068;15.458;2023-04-01T13:02:40;0.77;;;0.50;;
13267;SDS011;6702;47.068;15.458;2023-04-01T13:09:31;0.70;;;0.50;;
13267;SDS011;6702;47.068;15.458;2023-04-01T13:16:21;1.67;;;0.40;;
13267;SDS011;6702;47.068;15.458;2023-04-01T13:19:30;3.10;;;2.40;;
13267;SDS011;6702;47.068;15.458;2023-04-01T13:22:45;7.60;;;6.93;;
13267;SDS011;6702;47.068;15.458;2023-04-01T13:26:03;4.70;;;3.77;;
13267;SDS011;6702;47.068;15.458;2023-04-01T13:29:16;4.63;;;3.43;;
13267;SDS011;6702;47.068;15.458;2023-04-01T13:32:25;1.87;;;1.77;;
13267;SDS011;6702;47.068;15.458;2023-04-01T13:35:45;1.10;;;0.80;;
13267;SDS011;6702;47.068;15.458;2023-04-01T13:39:01;0.60;;;0.40;;
13267;SDS011;6702;47.068;15.458;2023-04-01T13:42:21;0.70;;;0.60;;
13267;SDS011;6702;47.068;15.458;2023-04-01T13:45:29;4.20;;;3.60;;
13267;SDS011;6702;47.068;15.458;2023-04-01T13:48:53;2.87;;;2.67;;
13267;SDS011;6702;47.068;15.458;2023-04-01T13:52:19;1.33;;;0.70;;
13267;SDS011;6702;47.068;15.458;2023-04-01T13:55:35;0.40;;;0.30;;
13267;SDS011;6702;47.068;15.458;2023-04-01T13:58:52;0.50;;;0.30;;
13267;SDS011;6702;47.068;15.458;2023-04-01T14:02:10;0.50;;;0.30;;
13267;SDS011;6702;47.068;15.458;2023-04-01T14:05:40;0.90;;;0.40;;
13267;SDS011;6702;47.068;15.458;2023-04-01T14:09:00;1.60;;;0.30;;
13267;SDS011;6702;47.068;15.458;2023-04-01T14:12:15;1.00;;;0.70;;
13267;SDS011;6702;47.068;15.458;2023-04-01T14:15:32;0.70;;;0.40;;
13267;SDS011;6702;47.068;15.458;2023-04-01T14:18:51;0.50;;;0.30;;
13267;SDS011;6702;47.068;15.458;2023-04-01T14:22:13;1.27;;;1.00;;
13267;SDS011;6702;47.068;15.458;2023-04-01T14:25:31;1.60;;;0.73;;
13267;SDS011;6702;47.068;15.458;2023-04-01T14:28:54;0.60;;;0.40;;
13267;SDS011;6702;47.068;15.458;2023-04-01T14:32:09;1.10;;;0.57;;
13267;SDS011;6702;47.068;15.458;2023-04-01T14:35:19;0.70;;;0.40;;
13267;SDS011;6702;47.068;15.458;2023-04-01T14:38:28;0.70;;;0.47;;
13267;SDS011;6702;47.068;15.458;2023-04-01T14:41:57;0.57;;;0.27;;
13267;SDS011;6702;47.068;15.458;2023-04-01T14:45:28;1.67;;;0.67;;
13267;SDS011;6702;47.068;15.458;2023-04-01T14:48:50;0.93;;;0.70;;
13267;SDS011;6702;47.068;15.458;2023-04-01T14:51:56;0.70;;;0.50;;
13267;SDS011;6702;47.068;15.458;2023-04-01T14:55:18;0.60;;;0.47;;
13267;SDS011;6702;47.068;15.458;2023-04-01T14:58:39;0.60;;;0.50;;
13267;SDS011;6702;47.068;15.458;2023-04-01T15:01:47;0.53;;;0.47;;
13267;SDS011;6702;47.068;15.458;2023-04-01T15:05:00;0.90;;;0.40;;
13267;SDS011;6702;47.068;15.458;2023-04-01T15:08:14;0.60;;;0.60;;
13267;SDS011;6702;47.068;15.458;2023-04-01T15:11:26;0.80;;;0.30;;
13267;SDS011;6702;47.068;15.458;2023-04-01T15:14:44;0.50;;;0.40;;
13267;SDS011;6702;47.068;15.458;2023-04-01T15:17:58;0.43;;;0.30;;
13267;SDS011;6702;47.068;15.458;2023-04-01T15:21:18;1.13;;;0.40;;
13267;SDS011;6702;47.068;15.458;2023-04-01T15:24:35;0.80;;;0.80;;
13267;SDS011;6702;47.068;15.458;2023-04-01T15:27:46;0.83;;;0.40;;
13267;SDS011;6702;47.068;15.458;2023-04-01T15:30:54;2.20;;;1.57;;
13267;SDS011;6702;47.068;15.458;2023-04-01T15:34:07;1.80;;;0.60;;
13267;SDS011;6702;47.068;15.458;2023-04-01T15:37:26;0.53;;;0.47;;
13267;SDS011;6702;47.068;15.458;2023-04-01T15:40:42;0.63;;;0.30;;
13267;SDS011;6702;47.068;15.458;2023-04-01T15:43:50;0.90;;;0.50;;
13267;SDS011;6702;47.068;15.458;2023-04-01T15:46:54;0.60;;;0.47;;
13267;SDS011;6702;47.068;15.458;2023-04-01T15:50:06;0.60;;;0.40;;
13267;SDS011;6702;47.068;15.458;2023-04-01T15:57:04;0.60;;;0.47;;
13267;SDS011;6702;47.068;15.458;2023-04-01T16:00:25;0.97;;;0.67;;
13267;SDS011;6702;47.068;15.458;2023-04-01T16:03:33;0.60;;;0.60;;
13267;SDS011;6702;47.068;15.458;2023-04-01T16:06:50;0.70;;;0.50;;
13267;SDS011;6702;47.068;15.458;2023-04-01T16:10:04;1.33;;;0.63;;
13267;SDS011;6702;47.068;15.458;2023-04-01T16:13:17;0.73;;;0.43;;
13267;SDS011;6702;47.068;15.458;2023-04-01T16:16:31;0.80;;;0.40;;
13267;SDS011;6702;47.068;15.458;2023-04-01T16:19:51;0.57;;;0.37;;
13267;SDS011;6702;47.068;15.458;2023-04-01T16:22:57;1.13;;;0.73;;
13267;SDS011;6702;47.068;15.458;2023-04-01T16:26:07;0.97;;;0.57;;
13267;SDS011;6702;47.068;15.458;2023-04-01T16:29:19;0.97;;;0.40;;
13267;SDS011;6702;47.068;15.458;2023-04-01T16:32:31;1.53;;;0.50;;
13267;SDS011;6702;47.068;15.458;2023-04-01T16:35:41;0.80;;;0.77;;
13267;SDS011;6702;47.068;15.458;2023-04-01T16:38:50;0.80;;;0.70;;
13267;SDS011;6702;47.068;15.458;2023-04-01T16:45:38;1.07;;;0.90;;
13267;SDS011;6702;47.068;15.458;2023-04-01T16:48:51;1.33;;;0.90;;
13267;SDS011;6702;47.068;15.458;2023-04-01T16:55:42;1.50;;;1.00;;
13267;SDS011;6702;47.068;15.458;2023-04-01T16:58:57;2.17;;;1.97;;
13267;SDS011;6702;47.068;15.458;2023-04-01T17:02:10;1.50;;;1.40;;
13267;SDS011;6702;47.068;15.458;2023-04-01T17:05:16;1.03;;;0.83;;
13267;SDS011;6702;47.068;15.458;2023-04-01T17:08:24;1.20;;;0.90;;
13267;SDS011;6702;47.068;15.458;2023-04-01T17:11:37;0.50;;;0.40;;
13267;SDS011;6702;47.068;15.458;2023-04-01T17:14:50;1.90;;;0.63;;
13267;SDS011;6702;47.068;15.458;2023-04-01T17:18:04;0.80;;;0.53;;
13267;SDS011;6702;47.068;15.458;2023-04-01T17:21:16;1.30;;;0.73;;
13267;SDS011;6702;47.068;15.458;2023-04-01T17:24:28;0.77;;;0.70;;
13267;SDS011;6702;47.068;15.458;2023-04-01T17:27:46;1.00;;;0.90;;
13267;SDS011;6702;47.068;15.458;2023-04-01T17:30:56;2.43;;;2.23;;
13267;SDS011;6702;47.068;15.458;2023-04-01T17:37:49;3.23;;;2.93;;
13267;SDS011;6702;47.068;15.458;2023-04-01T17:41:03;1.87;;;1.77;;
13267;SDS011;6702;47.068;15.458;2023-04-01T17:44:16;1.70;;;1.23;;
13267;SDS011;6702;47.068;15.458;2023-04-01T17:47:36;2.33;;;2.00;;
13267;SDS011;6702;47.068;15.458;2023-04-01T17:51:03;2.47;;;1.80;;
13267;SDS011;6702;47.068;15.458;2023-04-01T17:54:20;2.10;;;1.40;;
13267;SDS011;6702;47.068;15.458;2023-04-01T17:57:39;3.10;;;1.80;;
13267;SDS011;6702;47.068;15.458;2023-04-01T18:00:52;3.77;;;2.60;;
13267;SDS011;6702;47.068;15.458;2023-04-01T18:04:08;2.87;;;2.67;;
13267;SDS011;6702;47.068;15.458;2023-04-01T18:07:27;2.33;;;1.30;;
13267;SDS011;6702;47.068;15.458;2023-04-01T18:14:24;2.03;;;1.60;;
13267;SDS011;6702;47.068;15.458;2023-04-01T18:18:07;1.57;;;1.47;;
13267;SDS011;6702;47.068;15.458;2023-04-01T18:21:31;3.23;;;2.70;;
13267;SDS011;6702;47.068;15.458;2023-04-01T18:24:47;2.47;;;2.17;;
13267;SDS011;6702;47.068;15.458;2023-04-01T18:31:32;1.00;;;0.53;;
13267;SDS011;6702;47.068;15.458;2023-04-01T18:34:42;2.47;;;0.90;;
13267;SDS011;6702;47.068;15.458;2023-04-01T18:37:55;0.67;;;0.40;;
13267;SDS011;6702;47.068;15.458;2023-04-01T18:41:14;0.60;;;0.40;;
13267;SDS011;6702;47.068;15.458;2023-04-01T18:44:25;0.63;;;0.50;;
13267;SDS011;6702;47.068;15.458;2023-04-01T18:47:40;1.13;;;0.53;;
13267;SDS011;6702;47.068;15.458;2023-04-01T18:50:51;0.60;;;0.60;;
13267;SDS011;6702;47.068;15.458;2023-04-01T18:54:00;2.73;;;0.63;;
13267;SDS011;6702;47.068;15.458;2023-04-01T18:57:09;0.70;;;0.60;;
13267;SDS011;6702;47.068;15.458;2023-04-01T19:00:20;0.70;;;0.67;;
13267;SDS011;6702;47.068;15.458;2023-04-01T19:03:31;0.83;;;0.80;;
13267;SDS011;6702;47.068;15.458;2023-04-01T19:06:43;0.93;;;0.60;;
13267;SDS011;6702;47.068;15.458;2023-04-01T19:09:50;0.70;;;0.70;;
13267;SDS011;6702;47.068;15.458;2023-04-01T19:13:04;0.80;;;0.80;;
13267;SDS011;6702;47.068;15.458;2023-04-01T19:16:23;1.03;;;0.90;;
13267;SDS011;6702;47.068;15.458;2023-04-01T19:19:42;1.57;;;1.20;;
13267;SDS011;6702;47.068;15.458;2023-04-01T19:23:11;1.97;;;1.77;;
13267;SDS011;6702;47.068;15.458;2023-04-01T19:26:42;1.93;;;1.07;;
13267;SDS011;6702;47.068;15.458;2023-04-01T19:29:55;1.10;;;1.00;;
13267;SDS011;6702;47.068;15.458;2023-04-01T19:33:17;2.37;;;1.70;;
13267;SDS011;6702;47.068;15.458;2023-04-01T19:36:30;2.57;;;2.30;;
13267;SDS011;6702;47.068;15.458;2023-04-01T19:39:47;4.83;;;4.47;;
13267;SDS011;6702;47.068;15.458;2023-04-01T19:42:58;2.47;;;2.27;;
13267;SDS011;6702;47.068;15.458;2023-04-01T19:46:10;3.40;;;2.50;;
13267;SDS011;6702;47.068;15.458;2023-04-01T19:49:24;6.37;;;2.00;;
13267;SDS011;6702;47.068;15.458;2023-04-01T19:52:42;1.60;;;1.50;;
13267;SDS011;6702;47.068;15.458;2023-04-01T19:55:48;2.13;;;1.70;;
13267;SDS011;6702;47.068;15.458;2023-04-01T19:58:59;1.80;;;1.70;;
13267;SDS011;6702;47.068;15.458;2023-04-01T20:02:21;2.43;;;1.47;;
13267;SDS011;6702;47.068;15.458;2023-04-01T20:05:40;2.13;;;1.60;;
13267;SDS011;6702;47.068;15.458;2023-04-01T20:08:55;1.50;;;1.40;;
13267;SDS011;6702;47.068;15.458;2023-04-01T20:12:10;2.10;;;1.60;;
13267;SDS011;6702;47.068;15.458;2023-04-01T20:15:27;3.80;;;2.40;;
13267;SDS011;6702;47.068;15.458;2023-04-01T20:18:38;2.43;;;1.90;;
13267;SDS011;6702;47.068;15.458;2023-04-01T20:21:49;2.60;;;2.20;;
13267;SDS011;6702;47.068;15.458;2023-04-01T20:24:56;2.60;;;2.00;;
13267;SDS011;6702;47.068;15.458;2023-04-01T20:28:05;1.80;;;1.47;;
13267;SDS011;6702;47.068;15.458;2023-04-01T20:31:24;2.00;;;1.77;;
13267;SDS011;6702;47.068;15.458;2023-04-01T20:34:40;2.67;;;1.97;;
13267;SDS011;6702;47.068;15.458;2023-04-01T20:37:56;2.37;;;2.17;;
13267;SDS011;6702;47.068;15.458;2023-04-01T20:41:08;2.33;;;2.13;;
13267;SDS011;6702;47.068;15.458;2023-04-01T20:44:18;3.50;;;2.10;;